createdAt,value
2018-01-13T00:00:53.164Z,83.08
2018-01-13T00:03:20.773Z,83.42
2018-01-13T00:05:48.268Z,83.49
2018-01-13T00:08:15.787Z,82.70
2018-01-13T00:10:43.258Z,82.61
2018-01-13T00:13:10.761Z,82.39
2018-01-13T00:15:38.254Z,82.92
2018-01-13T00:18:06.880Z,83.20
2018-01-13T00:20:34.380Z,83.52
2018-01-13T00:23:02.225Z,83.92
2018-01-13T00:25:29.750Z,84.43
2018-01-13T00:27:57.518Z,84.47
2018-01-13T00:30:25.187Z,84.41
2018-01-13T00:32:53.391Z,84.81
2018-01-13T00:35:21.380Z,84.92
2018-01-13T00:37:48.877Z,84.76
2018-01-13T00:40:16.398Z,84.92
2018-01-13T00:42:43.885Z,84.83
2018-01-13T00:45:11.418Z,84.47
2018-01-13T00:47:38.963Z,84.96
2018-01-13T00:50:06.467Z,85.26
2018-01-13T00:52:33.968Z,85.53
2018-01-13T00:55:01.449Z,85.41
2018-01-13T00:57:28.943Z,85.73
2018-01-13T00:59:56.435Z,85.35
2018-01-13T01:02:24.103Z,85.33
2018-01-13T01:04:51.750Z,85.33
2018-01-13T01:07:19.443Z,85.26
2018-01-13T01:09:46.982Z,85.12
2018-01-13T01:12:14.466Z,85.22
2018-01-13T01:14:41.944Z,85.07
2018-01-13T01:17:09.439Z,84.80
2018-01-13T01:19:36.954Z,84.58
2018-01-13T01:22:04.427Z,84.86
2018-01-13T01:24:31.952Z,84.95
2018-01-13T01:26:59.448Z,84.68
2018-01-13T01:29:26.995Z,84.99
2018-01-13T01:32:08.669Z,85.14
2018-01-13T01:34:36.166Z,85.39
2018-01-13T01:37:03.747Z,85.32
2018-01-13T01:39:31.286Z,85.41
2018-01-13T01:41:58.855Z,85.64
2018-01-13T01:44:26.400Z,85.81
2018-01-13T01:46:53.913Z,86.00
2018-01-13T01:49:21.488Z,86.32
2018-01-13T01:51:48.996Z,86.52
2018-01-13T01:54:17.288Z,86.49
2018-01-13T01:56:44.775Z,86.24
2018-01-13T01:59:12.258Z,85.99
2018-01-13T02:01:39.780Z,85.92
2018-01-13T02:04:07.267Z,86.17
2018-01-13T02:06:34.756Z,86.23
2018-01-13T02:09:03.232Z,86.10
2018-01-13T02:11:30.699Z,86.18
2018-01-13T02:13:58.302Z,85.97
2018-01-13T02:16:25.848Z,86.06
2018-01-13T02:18:53.419Z,86.04
2018-01-13T02:21:20.918Z,86.13
2018-01-13T02:23:49.100Z,86.24
2018-01-13T02:26:16.601Z,86.25
2018-01-13T02:28:44.089Z,86.22
2018-01-13T02:31:12.867Z,86.07
2018-01-13T02:33:40.427Z,86.25
2018-01-13T02:36:08.019Z,86.33
2018-01-13T02:38:35.497Z,86.41
2018-01-13T02:41:03.049Z,86.39
2018-01-13T02:43:35.672Z,86.19
2018-01-13T02:46:03.226Z,86.16
2018-01-13T02:48:30.714Z,86.03
2018-01-13T02:50:58.245Z,85.98
2018-01-13T02:53:30.797Z,86.05
2018-01-13T02:55:58.284Z,86.29
2018-01-13T02:58:25.863Z,86.34
2018-01-13T03:00:53.379Z,86.41
2018-01-13T03:03:20.875Z,86.35
2018-01-13T03:05:48.703Z,86.27
2018-01-13T03:08:17.465Z,86.25
2018-01-13T03:10:44.926Z,86.01
2018-01-13T03:13:12.458Z,85.98
2018-01-13T03:15:40.053Z,86.15
2018-01-13T03:18:07.896Z,86.34
2018-01-13T03:20:36.275Z,86.22
2018-01-13T03:23:08.719Z,86.43
2018-01-13T03:25:36.275Z,86.56
2018-01-13T03:28:03.734Z,86.46
2018-01-13T03:30:31.203Z,86.51
2018-01-13T03:32:58.805Z,86.41
2018-01-13T03:35:26.555Z,86.34
2018-01-13T03:37:54.025Z,86.50
2018-01-13T03:40:21.563Z,86.49
2018-01-13T03:42:49.064Z,86.29
2018-01-13T03:45:16.591Z,86.19
2018-01-13T03:47:44.195Z,85.88
2018-01-13T03:50:11.755Z,86.00
2018-01-13T03:52:39.253Z,86.15
2018-01-13T03:55:07.013Z,86.22
2018-01-13T03:57:34.542Z,86.36
2018-01-13T04:00:02.827Z,86.49
2018-01-13T04:02:30.341Z,86.42
2018-01-13T04:04:57.843Z,86.37
2018-01-13T04:07:25.318Z,86.40
2018-01-13T04:09:52.800Z,86.42
2018-01-13T04:12:20.314Z,86.52
2018-01-13T04:14:47.791Z,86.58
2018-01-13T04:17:15.285Z,86.28
2018-01-13T04:19:42.862Z,86.40
2018-01-13T04:22:10.628Z,86.42
2018-01-13T04:24:38.133Z,86.13
2018-01-13T04:27:06.183Z,86.30
2018-01-13T04:29:33.676Z,86.31
2018-01-13T04:32:01.200Z,86.53
2018-01-13T04:34:28.684Z,86.50
2018-01-13T04:36:56.175Z,86.57
2018-01-13T04:39:23.673Z,86.26
2018-01-13T04:41:51.169Z,86.49
2018-01-13T04:44:18.709Z,86.51
2018-01-13T04:46:46.254Z,86.32
2018-01-13T04:49:13.786Z,86.31
2018-01-13T04:51:41.278Z,86.28
2018-01-13T04:54:08.756Z,86.43
2018-01-13T04:56:36.232Z,86.38
2018-01-13T04:59:03.771Z,86.39
2018-01-13T05:01:31.276Z,86.48
2018-01-13T05:03:58.751Z,86.65
2018-01-13T05:06:26.335Z,86.48
2018-01-13T05:08:53.861Z,86.58
2018-01-13T05:11:21.386Z,86.50
2018-01-13T05:13:48.928Z,86.43
2018-01-13T05:16:16.386Z,86.36
2018-01-13T05:18:43.845Z,86.31
2018-01-13T05:21:11.420Z,86.27
2018-01-13T05:26:31.954Z,86.60
2018-01-13T05:28:59.594Z,86.61
2018-01-13T05:31:27.157Z,86.69
2018-01-13T05:33:54.855Z,86.34
2018-01-13T05:36:23.304Z,86.58
2018-01-13T05:38:51.036Z,86.63
2018-01-13T05:41:18.539Z,86.56
2018-01-13T05:43:46.442Z,86.55
2018-01-13T05:46:13.961Z,86.20
2018-01-13T05:48:42.270Z,85.90
2018-01-13T05:51:10.701Z,85.78
2018-01-13T05:53:47.883Z,85.78
2018-01-13T05:56:15.369Z,85.80
2018-01-13T05:58:42.899Z,86.06
2018-01-13T06:01:10.430Z,85.79
2018-01-13T06:03:37.917Z,85.68
2018-01-13T06:06:06.399Z,85.64
2018-01-13T06:08:33.932Z,85.81
2018-01-13T06:11:01.442Z,85.46
2018-01-13T06:13:38.640Z,85.38
2018-01-13T06:16:06.300Z,85.55
2018-01-13T06:18:33.765Z,85.29
2018-01-13T06:21:01.269Z,85.50
2018-01-13T06:23:28.866Z,85.13
2018-01-13T06:25:56.339Z,84.87
2018-01-13T06:28:23.810Z,84.88
2018-01-13T06:30:51.352Z,85.24
2018-01-13T06:33:19.624Z,85.22
2018-01-13T06:35:47.161Z,85.42
2018-01-13T06:38:14.647Z,85.27
2018-01-13T06:40:42.419Z,85.63
2018-01-13T06:43:10.628Z,85.80
2018-01-13T06:45:39.221Z,85.56
2018-01-13T06:48:07.998Z,85.60
2018-01-13T06:50:35.486Z,85.43
2018-01-13T06:53:02.953Z,85.30
2018-01-13T06:55:30.531Z,85.09
2018-01-13T06:57:58.530Z,85.25
2018-01-13T07:00:26.025Z,85.12
2018-01-13T07:02:53.494Z,85.32
2018-01-13T07:05:20.966Z,85.26
2018-01-13T07:07:48.492Z,85.19
2018-01-13T07:10:16.160Z,85.13
2018-01-13T07:12:43.701Z,85.32
2018-01-13T07:15:11.175Z,85.24
2018-01-13T07:17:39.285Z,85.53
2018-01-13T07:20:06.796Z,85.28
2018-01-13T07:22:34.409Z,85.28
2018-01-13T07:25:01.903Z,85.10
2018-01-13T07:27:29.415Z,84.89
2018-01-13T07:29:56.918Z,84.94
2018-01-13T07:32:24.456Z,84.72
2018-01-13T07:34:51.941Z,84.67
2018-01-13T07:37:20.446Z,84.74
2018-01-13T07:39:48.055Z,84.44
2018-01-13T07:42:15.519Z,84.44
2018-01-13T07:44:43.012Z,84.41
2018-01-13T07:47:10.547Z,84.45
2018-01-13T07:49:38.154Z,84.33
2018-01-13T07:52:05.702Z,84.23
2018-01-13T07:54:33.252Z,83.94
2018-01-13T07:57:00.786Z,83.68
2018-01-13T07:59:28.339Z,83.66
2018-01-13T08:01:55.976Z,83.93
2018-01-13T08:04:23.539Z,83.38
2018-01-13T08:06:51.109Z,82.25
2018-01-13T08:09:18.678Z,81.86
2018-01-13T08:11:46.182Z,80.78
2018-01-13T08:14:13.669Z,80.50
2018-01-13T08:16:41.155Z,79.75
2018-01-13T08:19:08.683Z,79.28
2018-01-13T08:21:36.214Z,79.72
2018-01-13T08:24:03.766Z,79.50
2018-01-13T08:26:31.256Z,79.84
2018-01-13T08:28:58.796Z,79.58
2018-01-13T08:31:26.357Z,78.94
2018-01-13T08:33:54.897Z,78.27
2018-01-13T08:36:22.455Z,78.17
2018-01-13T08:38:50.562Z,77.94
2018-01-13T08:41:18.048Z,77.54
2018-01-13T08:43:45.886Z,77.49
2018-01-13T08:46:13.590Z,77.06
2018-01-13T08:48:41.177Z,76.37
2018-01-13T08:51:08.767Z,76.63
2018-01-13T08:53:36.471Z,77.86
2018-01-13T08:56:03.935Z,77.38
2018-01-13T08:58:31.411Z,77.84
2018-01-13T09:00:59.165Z,76.09
2018-01-13T09:03:26.955Z,75.46
2018-01-13T09:05:54.703Z,75.67
2018-01-13T09:08:22.453Z,75.66
2018-01-13T09:10:49.940Z,75.53
2018-01-13T09:13:17.546Z,74.99
2018-01-13T09:15:45.067Z,74.78
2018-01-13T09:18:12.602Z,74.61
2018-01-13T09:20:40.206Z,74.22
2018-01-13T09:23:07.790Z,74.46
2018-01-13T09:25:35.290Z,74.35
2018-01-13T09:28:02.846Z,74.41
2018-01-13T09:30:31.245Z,74.50
2018-01-13T09:32:58.887Z,74.44
2018-01-13T09:35:26.445Z,74.96
2018-01-13T09:37:54.027Z,73.91
2018-01-13T09:40:22.364Z,74.06
2018-01-13T09:42:49.833Z,74.37
2018-01-13T09:45:17.744Z,74.71
2018-01-13T09:47:45.238Z,74.29
2018-01-13T09:50:12.828Z,74.12
2018-01-13T09:52:40.361Z,74.20
2018-01-13T09:55:07.872Z,73.95
2018-01-13T09:57:35.728Z,73.72
2018-01-13T10:00:03.216Z,73.80
2018-01-13T10:02:35.722Z,73.68
2018-01-13T10:05:04.397Z,73.20
2018-01-13T10:07:31.914Z,73.07
2018-01-13T10:10:01.161Z,73.64
2018-01-13T10:12:28.780Z,73.52
2018-01-13T10:14:56.406Z,72.98
2018-01-13T10:17:23.984Z,73.32
2018-01-13T10:19:52.243Z,72.94
2018-01-13T10:22:19.731Z,72.38
2018-01-13T10:24:47.284Z,72.46
2018-01-13T10:27:15.129Z,73.00
2018-01-13T10:29:42.844Z,72.38
2018-01-13T10:32:10.354Z,72.25
2018-01-13T10:34:37.868Z,72.38
2018-01-13T10:37:05.370Z,72.03
2018-01-13T10:39:32.929Z,72.46
2018-01-13T10:42:01.736Z,72.52
2018-01-13T10:44:29.296Z,72.94
2018-01-13T10:46:56.904Z,72.63
2018-01-13T10:49:24.503Z,72.64
2018-01-13T10:51:52.046Z,72.88
2018-01-13T10:54:19.538Z,72.73
2018-01-13T10:56:47.032Z,72.33
2018-01-13T10:59:14.530Z,71.98
2018-01-13T11:01:42.185Z,72.26
2018-01-13T11:04:09.662Z,72.46
2018-01-13T11:06:38.179Z,72.57
2018-01-13T11:09:06.742Z,73.04
2018-01-13T11:11:34.221Z,73.28
2018-01-13T11:14:01.969Z,72.64
2018-01-13T11:16:29.469Z,72.42
2018-01-13T11:18:57.143Z,72.63
2018-01-13T11:21:24.805Z,73.10
2018-01-13T11:23:52.343Z,73.15
2018-01-13T11:26:19.914Z,72.67
2018-01-13T11:28:47.474Z,72.77
2018-01-13T11:31:15.027Z,72.74
2018-01-13T11:33:42.585Z,72.41
2018-01-13T11:36:10.142Z,72.02
2018-01-13T11:38:37.667Z,72.25
2018-01-13T11:41:05.187Z,71.90
2018-01-13T11:43:32.803Z,72.21
2018-01-13T11:46:01.497Z,72.38
2018-01-13T11:48:29.243Z,72.73
2018-01-13T11:50:56.803Z,72.16
2018-01-13T11:53:24.950Z,72.33
2018-01-13T11:55:52.546Z,72.30
2018-01-13T11:58:20.041Z,72.21
2018-01-13T12:00:47.622Z,72.53
2018-01-13T12:03:15.250Z,72.31
2018-01-13T12:05:42.812Z,74.16
2018-01-13T12:08:10.372Z,73.64
2018-01-13T12:10:37.945Z,72.81
2018-01-13T12:13:05.505Z,72.87
2018-01-13T12:15:33.280Z,72.50
2018-01-13T12:18:00.816Z,72.41
2018-01-13T12:20:28.380Z,72.40
2018-01-13T12:22:56.079Z,71.65
2018-01-13T12:25:23.705Z,72.32
2018-01-13T12:27:51.528Z,72.08
2018-01-13T12:30:19.049Z,72.19
2018-01-13T12:32:46.534Z,72.43
2018-01-13T12:35:14.074Z,72.39
2018-01-13T12:37:41.737Z,72.22
2018-01-13T12:40:09.797Z,71.94
2018-01-13T12:42:37.674Z,72.07
2018-01-13T12:45:05.212Z,72.33
2018-01-13T12:47:32.714Z,72.29
2018-01-13T12:50:00.217Z,72.35
2018-01-13T12:52:27.835Z,72.47
2018-01-13T12:54:55.449Z,72.23
2018-01-13T12:57:23.016Z,72.37
2018-01-13T12:59:50.561Z,72.36
2018-01-13T13:02:18.181Z,71.86
2018-01-13T13:04:45.671Z,72.09
2018-01-13T13:07:13.295Z,72.33
2018-01-13T13:09:40.769Z,72.42
2018-01-13T13:12:08.415Z,71.74
2018-01-13T13:14:36.023Z,71.74
2018-01-13T13:17:03.545Z,72.16
2018-01-13T13:19:31.081Z,72.07
2018-01-13T13:21:58.576Z,72.22
2018-01-13T13:24:26.039Z,71.93
2018-01-13T13:26:53.554Z,71.88
2018-01-13T13:29:21.162Z,72.17
2018-01-13T13:31:48.659Z,72.41
2018-01-13T13:34:16.387Z,72.26
2018-01-13T13:36:43.990Z,72.27
2018-01-13T13:39:11.531Z,72.60
2018-01-13T13:41:40.018Z,71.99
2018-01-13T13:44:18.191Z,71.83
2018-01-13T13:46:45.708Z,72.06
2018-01-13T13:49:13.257Z,71.94
2018-01-13T13:51:40.767Z,72.32
2018-01-13T13:54:22.532Z,72.33
2018-01-13T13:56:50.078Z,72.05
2018-01-13T13:59:17.745Z,72.06
2018-01-13T14:01:45.362Z,71.85
2018-01-13T14:04:12.920Z,72.06
2018-01-13T14:06:40.453Z,72.39
2018-01-13T14:09:08.790Z,72.74
2018-01-13T14:11:36.814Z,72.84
2018-01-13T14:14:04.470Z,72.53
2018-01-13T14:16:32.071Z,72.76
2018-01-13T14:18:59.632Z,72.95
2018-01-13T14:21:27.165Z,73.05
2018-01-13T14:23:54.679Z,72.41
2018-01-13T14:26:22.301Z,72.55
2018-01-13T14:28:50.085Z,72.19
2018-01-13T14:31:17.701Z,72.52
2018-01-13T14:33:45.241Z,72.98
2018-01-13T14:36:12.769Z,72.65
2018-01-13T14:38:40.264Z,72.82
2018-01-13T14:41:07.937Z,72.87
2018-01-13T14:43:35.425Z,73.01
2018-01-13T14:46:03.378Z,72.76
2018-01-13T14:48:30.905Z,72.50
2018-01-13T14:50:58.434Z,72.36
2018-01-13T14:53:26.137Z,72.71
2018-01-13T14:55:53.673Z,72.95
2018-01-13T14:58:21.349Z,72.62
2018-01-13T15:00:48.844Z,72.94
2018-01-13T15:03:16.386Z,73.01
2018-01-13T15:05:43.925Z,72.99
2018-01-13T15:08:11.487Z,72.97
2018-01-13T15:10:39.150Z,73.23
2018-01-13T15:13:06.623Z,72.99
2018-01-13T15:15:34.216Z,72.69
2018-01-13T15:18:01.793Z,73.13
2018-01-13T15:20:29.334Z,73.29
2018-01-13T15:22:56.878Z,73.56
2018-01-13T15:25:24.533Z,73.40
2018-01-13T15:27:52.116Z,73.58
2018-01-13T15:30:19.651Z,72.76
2018-01-13T15:32:48.316Z,72.74
2018-01-13T15:35:15.848Z,72.84
2018-01-13T15:37:43.291Z,73.00
2018-01-13T15:40:10.853Z,72.90
2018-01-13T15:42:38.566Z,72.99
2018-01-13T15:45:06.617Z,72.58
2018-01-13T15:47:35.035Z,72.25
2018-01-13T15:50:02.561Z,72.40
2018-01-13T15:52:30.031Z,72.14
2018-01-13T15:54:57.592Z,72.24
2018-01-13T15:57:25.288Z,72.35
2018-01-13T15:59:52.836Z,72.37
2018-01-13T16:02:20.441Z,72.27
2018-01-13T16:04:48.078Z,72.10
2018-01-13T16:07:15.612Z,71.93
2018-01-13T16:09:43.226Z,71.93
2018-01-13T16:12:10.771Z,71.66
2018-01-13T16:14:38.325Z,71.67
2018-01-13T16:17:06.076Z,71.59
2018-01-13T16:19:33.811Z,71.53
2018-01-13T16:22:01.279Z,71.15
2018-01-13T16:24:28.811Z,71.06
2018-01-13T16:26:56.678Z,71.17
2018-01-13T16:29:24.430Z,71.44
2018-01-13T16:31:51.970Z,71.69
2018-01-13T16:34:19.510Z,71.63
2018-01-13T16:36:46.989Z,71.67
2018-01-13T16:39:14.536Z,71.78
2018-01-13T16:41:42.096Z,71.29
2018-01-13T16:44:09.590Z,71.04
2018-01-13T16:46:37.165Z,71.41
2018-01-13T16:49:04.914Z,71.26
2018-01-13T16:51:32.413Z,71.08
2018-01-13T16:53:59.996Z,71.20
2018-01-13T16:56:27.773Z,70.81
2018-01-13T16:58:55.260Z,70.56
2018-01-13T17:01:22.835Z,70.36
2018-01-13T17:03:50.341Z,70.54
2018-01-13T17:06:17.888Z,70.81
2018-01-13T17:08:45.465Z,70.70
2018-01-13T17:11:12.955Z,70.36
2018-01-13T17:13:40.505Z,70.60
2018-01-13T17:16:08.066Z,70.95
2018-01-13T17:18:35.550Z,70.88
2018-01-13T17:21:03.222Z,70.87
2018-01-13T17:23:30.763Z,70.91
2018-01-13T17:25:58.311Z,71.11
2018-01-13T17:28:25.953Z,71.14
2018-01-13T17:30:53.537Z,71.14
2018-01-13T17:33:30.696Z,71.11
2018-01-13T17:35:58.282Z,70.97
2018-01-13T17:38:25.992Z,71.19
2018-01-13T17:40:53.615Z,70.91
2018-01-13T17:43:21.153Z,70.92
2018-01-13T17:45:48.681Z,70.85
2018-01-13T17:48:16.195Z,70.90
2018-01-13T17:50:43.779Z,71.10
2018-01-13T17:53:11.548Z,71.38
2018-01-13T17:55:39.474Z,71.03
2018-01-13T17:58:07.085Z,70.85
2018-01-13T18:00:35.006Z,71.03
2018-01-13T18:03:03.099Z,71.04
2018-01-13T18:05:30.626Z,70.62
2018-01-13T18:07:58.370Z,70.71
2018-01-13T18:10:25.987Z,70.58
2018-01-13T18:12:54.442Z,70.44
2018-01-13T18:15:22.121Z,70.26
2018-01-13T18:17:49.761Z,69.94
2018-01-13T18:20:17.312Z,69.81
2018-01-13T18:22:49.942Z,68.47
2018-01-13T18:25:17.471Z,67.61
2018-01-13T18:27:45.343Z,67.86
2018-01-13T18:30:12.951Z,67.46
2018-01-13T18:32:40.666Z,66.58
2018-01-13T18:35:08.418Z,65.74
2018-01-13T18:37:36.151Z,63.89
2018-01-13T18:40:05.177Z,63.97
2018-01-13T18:42:33.046Z,62.99
2018-01-13T18:45:00.665Z,61.96
2018-01-13T18:47:28.320Z,61.62
2018-01-13T18:49:55.916Z,60.91
2018-01-13T18:52:28.708Z,61.06
2018-01-13T18:54:57.149Z,60.00
2018-01-13T18:57:24.909Z,59.68
2018-01-13T18:59:52.576Z,59.94
2018-01-13T19:02:20.432Z,59.70
2018-01-13T19:04:48.075Z,59.77
2018-01-13T19:07:15.622Z,59.00
2018-01-13T19:09:43.211Z,58.79
2018-01-13T19:12:10.811Z,58.44
2018-01-13T19:14:38.375Z,58.20
2018-01-13T19:17:05.940Z,58.50
2018-01-13T19:19:33.582Z,58.45
2018-01-13T19:22:01.165Z,59.02
2018-01-13T19:24:28.952Z,59.14
2018-01-13T19:26:56.416Z,59.25
2018-01-13T19:29:23.899Z,59.93
2018-01-13T19:31:51.521Z,59.86
2018-01-13T19:34:19.039Z,59.63
2018-01-13T19:36:46.593Z,59.32
2018-01-13T19:39:14.139Z,59.57
2018-01-13T19:41:41.701Z,60.18
2018-01-13T19:44:10.218Z,59.60
2018-01-13T19:46:38.193Z,59.56
2018-01-13T19:49:05.764Z,59.72
2018-01-13T19:51:33.295Z,59.81
2018-01-13T19:54:00.824Z,59.45
2018-01-13T19:56:28.404Z,59.78
2018-01-13T19:58:55.927Z,60.00
2018-01-13T20:01:23.522Z,60.27
2018-01-13T20:03:51.434Z,60.11
2018-01-13T20:06:19.007Z,59.48
2018-01-13T20:08:46.485Z,59.81
2018-01-13T20:11:14.038Z,59.04
2018-01-13T20:13:41.601Z,59.02
2018-01-13T20:16:09.379Z,59.26
2018-01-13T20:18:36.920Z,59.73
2018-01-13T20:21:04.732Z,59.98
2018-01-13T20:23:32.270Z,60.23
2018-01-13T20:25:59.852Z,60.15
2018-01-13T20:28:27.502Z,60.35
2018-01-13T20:30:55.068Z,60.76
2018-01-13T20:33:22.540Z,61.20
2018-01-13T20:35:50.277Z,61.42
2018-01-13T20:38:18.017Z,61.77
2018-01-13T20:40:45.549Z,62.12
2018-01-13T20:43:13.527Z,62.77
2018-01-13T20:45:41.173Z,63.07
2018-01-13T20:48:08.808Z,63.38
2018-01-13T20:50:36.293Z,63.79
2018-01-13T20:53:03.819Z,64.36
2018-01-13T20:55:31.373Z,64.41
2018-01-13T20:57:58.939Z,64.52
2018-01-13T21:00:26.602Z,64.84
2018-01-13T21:02:54.075Z,65.24
2018-01-13T21:05:21.636Z,65.22
2018-01-13T21:07:49.157Z,65.62
2018-01-13T21:10:16.715Z,65.72
2018-01-13T21:12:44.304Z,66.02
2018-01-13T21:15:11.825Z,66.37
2018-01-13T21:17:39.423Z,66.46
2018-01-13T21:20:06.963Z,66.70
2018-01-13T21:22:34.544Z,66.87
2018-01-13T21:25:02.056Z,66.73
2018-01-13T21:27:29.690Z,66.76
2018-01-13T21:29:57.234Z,66.98
2018-01-13T21:32:24.833Z,67.11
2018-01-13T21:34:52.381Z,67.17
2018-01-13T21:37:19.871Z,67.16
2018-01-13T21:39:47.368Z,67.41
2018-01-13T21:42:14.858Z,67.39
2018-01-13T21:44:42.373Z,67.30
2018-01-13T21:47:09.987Z,67.53
2018-01-13T21:49:37.824Z,67.55
2018-01-13T21:52:05.601Z,67.74
2018-01-13T21:54:33.326Z,67.81
2018-01-13T21:57:00.920Z,67.96
2018-01-13T21:59:28.462Z,67.77
2018-01-13T22:01:56.043Z,67.74
2018-01-13T22:04:23.628Z,67.24
2018-01-13T22:06:51.152Z,67.33
2018-01-13T22:09:18.699Z,67.40
2018-01-13T22:11:46.353Z,67.38
2018-01-13T22:14:13.812Z,67.38
2018-01-13T22:16:41.498Z,67.40
2018-01-13T22:19:09.295Z,67.60
2018-01-13T22:21:36.885Z,67.63
2018-01-13T22:24:04.553Z,67.69
2018-01-13T22:26:32.812Z,67.81
2018-01-13T22:29:00.289Z,67.89
2018-01-13T22:31:27.818Z,67.73
2018-01-13T22:33:55.401Z,67.24
2018-01-13T22:36:22.910Z,67.40
2018-01-13T22:38:52.004Z,67.48
2018-01-13T22:41:19.515Z,67.15
2018-01-13T22:43:46.987Z,66.60
2018-01-13T22:46:15.477Z,66.84
2018-01-13T22:48:43.030Z,66.39
2018-01-13T22:51:10.591Z,66.41
2018-01-13T22:53:38.342Z,66.58
2018-01-13T22:56:05.966Z,66.11
2018-01-13T22:58:33.546Z,65.97
2018-01-13T23:01:01.132Z,66.58
2018-01-13T23:03:28.615Z,65.39
2018-01-13T23:05:56.182Z,65.35
2018-01-13T23:08:24.556Z,65.15
2018-01-13T23:10:52.258Z,65.23
2018-01-13T23:13:21.040Z,64.87
2018-01-13T23:15:48.502Z,65.18
2018-01-13T23:18:16.122Z,65.25
2018-01-13T23:20:43.576Z,64.95
2018-01-13T23:23:11.568Z,64.90
2018-01-13T23:25:39.096Z,65.44
2018-01-13T23:28:06.597Z,65.38
2018-01-13T23:30:34.211Z,65.39
2018-01-13T23:33:01.755Z,65.44
2018-01-13T23:35:29.300Z,65.12
2018-01-13T23:37:57.003Z,65.23
2018-01-13T23:40:24.851Z,65.11
2018-01-13T23:42:52.580Z,64.72
2018-01-13T23:45:20.125Z,64.60
2018-01-13T23:47:47.668Z,64.70
2018-01-13T23:50:15.164Z,65.20
2018-01-13T23:52:42.662Z,64.89
2018-01-13T23:55:10.296Z,64.97
2018-01-13T23:57:37.840Z,65.27
